Thursday, August 16, 2018, 5:56 AM GMT
Back to Local

CWTN, Cap Tourmente

Location: , , Canada Lat: 47.067
Local Time: 5:56 AM GMT ( 5:56 GMT) Lon: -70.8
Time Zone: GMT Elev: 19 ft

Show me the last for .
Show Coded

Time T Td Feel RH Dir Speed Gust Alt SLP Vis Weather Sky Remarks
2018-08-16 05:00 59 52 - 76 360° 6 - - 29.90 0 None
2018-08-16 04:00 57 53 - 87 100° 2 - - 29.89 0 None
2018-08-16 03:00 63 51 - 65 70° 2 - - 29.88 0 None
2018-08-16 02:00 66 54 - 64 30° 7 - - 29.87 0 None
2018-08-16 01:00 65 58 - 76 70° 3 - - 29.85 0 Peak wind: 19 mph (17 kts) from 70° at 18 min
2018-08-16 00:00 68 60 - 74 90° 8 - - 29.81 0 None
2018-08-15 23:00 72 64 76 77 90° 8 - - 29.79 0 None
2018-08-15 22:00 78 67 81 69 280° 3 - - 29.75 0 None
2018-08-15 21:00 78 68 81 73 290° 5 - - 29.72 0 None
2018-08-15 20:00 79 70 83 74 260° 5 - - 29.73 0 None
2018-08-15 19:00 77 70 81 77 240° 6 - - 29.71 0 None
2018-08-15 18:00 69 67 - 94 310° 3 - - 29.76 0 None
2018-08-15 17:00 74 70 78 85 320° 2 - - 29.76 0 None
2018-08-15 16:00 77 70 81 79 270° 3 - - 29.75 0 None
2018-08-15 15:00 74 73 79 95 310° 1 - - 29.76 0 None
2018-08-15 14:00 78 72 82 82 250° 6 - - 29.75 0 None
2018-08-15 13:00 76 72 80 88 250° 6 - - 29.74 0 None
2018-08-15 12:00 75 72 79 91 260° 2 - - 29.74 0 None
2018-08-15 11:00 72 71 77 96 250° 1 - - 29.74 0 None
2018-08-15 10:00 68 68 - 100 250° 2 - - 29.73 0 None
2018-08-15 09:00 68 68 - 100 330° 2 - - 29.72 0 None
2018-08-15 08:00 69 69 - 100 - Calm - - 29.72 0 None
2018-08-15 07:00 69 67 - 92 290° 1 - - 29.71 0 None
2018-08-15 06:00 71 70 76 97 170° 1 - - 29.73 0 None

Support USWX by starting your Amazon purchase here.